Verkhoyansk, Russia
Current Conditions -  °F | °C
As of 10:30 PM on Monday 24 Nov 2014 (Local Time) from UEEE Reporting Station
Clear Clear  
Wind Chill: -27°   Ceiling: Unl
Heat Index: -15°   Visibility: 6mi
Dew Point: -20°   Wind: 4mph
Humidity: 77%   Direction: 350°N
Pressure: 29.77"   Gusts: NA
Location:  67.54°N, 133.39°E
Report Text: UEEE 241230Z 35002MPS CAVOK M26/M29 Q1008 NOSIG RMK QFE74823490150
Loading
Personal Weather Stations






























Interactive Weather Map New forecast layout! Learn more

10-Day Weather Forecast

Advertisements
Track Severe Weather on mobile